Time;durP1;ratioP1;P1;durP2;ratioP2;P2;SDS_P1;SDS_P2;PMS_P1;PMS_P2;Temp;Humidity;BMP_temperature;BMP_pressure;BME280_temperature;BME280_humidity;BME280_pressure;Samples;Min_cycle;Max_cycle;Signal;HPM_P1;HPM_P2
2023/01/13 00:00:26;;;;;;;2.63;1.08;;;8.90;99.90;;;;;;2603410;54;20137;31
2023/01/13 00:03:01;;;;;;;2.45;1.05;;;8.90;99.90;;;;;;2603436;54;20029;31
2023/01/13 00:05:36;;;;;;;1.77;1.00;;;8.90;99.90;;;;;;2621797;46;20023;31
2023/01/13 00:08:13;;;;;;;1.85;0.88;;;8.90;99.90;;;;;;2603373;54;20052;31
2023/01/13 00:10:49;;;;;;;2.00;1.00;;;8.90;99.90;;;;;;2773417;31;20525;31
2023/01/13 00:13:25;;;;;;;2.58;1.10;;;8.90;99.90;;;;;;2603321;54;20097;31
2023/01/13 00:16:00;;;;;;;2.57;1.23;;;8.90;99.90;;;;;;2603249;54;20081;31
2023/01/13 00:18:35;;;;;;;4.75;1.13;;;8.90;99.90;;;;;;2603372;54;20761;31
2023/01/13 00:21:13;;;;;;;3.97;1.30;;;8.90;99.90;;;;;;2603619;54;20877;31
2023/01/13 00:23:50;;;;;;;2.93;1.40;;;8.90;99.90;;;;;;2603303;54;20092;31
2023/01/13 00:26:25;;;;;;;3.30;1.30;;;8.90;99.90;;;;;;2603154;54;21030;31
2023/01/13 00:29:00;;;;;;;3.67;1.42;;;8.90;99.90;;;;;;2603386;54;20127;31
2023/01/13 00:31:37;;;;;;;5.63;1.60;;;8.90;99.90;;;;;;2603071;54;20030;31
2023/01/13 00:34:12;;;;;;;2.60;1.05;;;8.90;99.90;;;;;;2603235;54;20905;31
2023/01/13 00:36:47;;;;;;;5.13;1.53;;;8.90;99.90;;;;;;2603120;54;20104;31
2023/01/13 00:39:25;;;;;;;1.45;1.05;;;8.90;99.90;;;;;;2603278;54;20034;31
2023/01/13 00:44:46;;;;;;;2.33;1.15;;;8.90;99.90;;;;;;2603351;54;20022;31
2023/01/13 00:47:22;;;;;;;3.05;1.20;;;8.90;99.90;;;;;;2603094;54;20027;31
2023/01/13 00:49:56;;;;;;;2.25;1.35;;;8.90;99.90;;;;;;2603189;54;19934;31
2023/01/13 00:52:31;;;;;;;3.40;1.15;;;8.90;99.90;;;;;;2603064;54;20037;31
2023/01/13 00:55:09;;;;;;;3.22;1.75;;;8.90;99.90;;;;;;2603361;54;20888;31
2023/01/13 00:57:43;;;;;;;3.20;1.30;;;8.90;99.90;;;;;;2603086;54;20842;31
2023/01/13 01:00:20;;;;;;;2.38;1.13;;;8.90;99.90;;;;;;2602949;54;20026;31
2023/01/13 01:02:55;;;;;;;3.47;1.42;;;8.90;99.90;;;;;;2603241;54;20027;31
2023/01/13 01:05:30;;;;;;;2.87;1.30;;;8.90;99.90;;;;;;2621508;46;20685;31
2023/01/13 01:08:05;;;;;;;2.78;1.05;;;8.90;99.90;;;;;;2602902;54;20247;31
2023/01/13 01:10:45;;;;;;;3.20;1.45;;;8.90;99.90;;;;;;2603222;54;20072;31
2023/01/13 01:13:19;;;;;;;3.75;1.20;;;8.90;99.90;;;;;;2602947;54;20029;31
2023/01/13 01:15:54;;;;;;;2.60;1.20;;;8.90;99.90;;;;;;2602812;54;20893;31
2023/01/13 01:18:29;;;;;;;2.40;1.25;;;8.90;99.90;;;;;;2602988;54;20648;31
2023/01/13 01:21:04;;;;;;;4.03;1.27;;;8.80;99.90;;;;;;2602982;54;20924;31
2023/01/13 01:23:41;;;;;;;3.58;1.27;;;8.90;99.90;;;;;;2602366;54;20019;31
2023/01/13 01:26:20;;;;;;;2.25;1.30;;;8.90;99.90;;;;;;2602993;54;20073;31
2023/01/13 01:28:55;;;;;;;2.08;1.30;;;8.90;99.90;;;;;;2603070;54;20046;31
2023/01/13 01:31:31;;;;;;;3.33;1.17;;;8.90;99.90;;;;;;2603111;54;19993;31
2023/01/13 01:34:05;;;;;;;3.63;1.63;;;8.90;99.90;;;;;;2602984;54;21469;31
2023/01/13 01:36:40;;;;;;;2.15;1.35;;;8.90;99.90;;;;;;2603209;54;20023;31
2023/01/13 01:39:15;;;;;;;2.05;1.05;;;8.90;99.90;;;;;;2602990;54;20028;31
2023/01/13 01:44:56;;;;;;;3.00;1.02;;;8.80;99.90;;;;;;2701324;39;21511;31
2023/01/13 01:47:31;;;;;;;3.60;1.40;;;8.90;99.90;;;;;;2602956;54;20029;31
2023/01/13 01:50:06;;;;;;;3.60;1.20;;;8.90;99.90;;;;;;2603125;54;20033;31
2023/01/13 01:52:41;;;;;;;2.42;1.40;;;8.90;99.90;;;;;;2602786;54;20087;31
2023/01/13 01:55:17;;;;;;;3.45;1.25;;;8.90;99.90;;;;;;2603204;54;21391;31
2023/01/13 01:57:56;;;;;;;2.75;1.42;;;8.90;99.90;;;;;;2602994;54;20022;31
2023/01/13 02:00:31;;;;;;;2.25;1.30;;;8.90;99.90;;;;;;2603099;54;20038;31
2023/01/13 02:03:05;;;;;;;3.95;1.50;;;8.90;99.90;;;;;;2603019;54;20820;31
2023/01/13 02:05:40;;;;;;;3.65;1.50;;;8.90;99.90;;;;;;2602785;54;20789;31
2023/01/13 02:08:15;;;;;;;2.97;1.33;;;8.90;99.90;;;;;;2603189;54;20778;31
2023/01/13 02:10:52;;;;;;;3.55;1.40;;;8.90;99.90;;;;;;2603885;54;20030;31
2023/01/13 02:13:27;;;;;;;2.70;1.50;;;8.90;99.90;;;;;;2603608;54;20124;31
2023/01/13 02:16:05;;;;;;;2.30;1.08;;;8.90;99.90;;;;;;2603632;54;20161;31
2023/01/13 02:18:45;;;;;;;4.13;1.63;;;9.00;99.90;;;;;;2603723;54;20858;31
2023/01/13 02:21:43;;;;;;;2.25;1.33;;;9.00;99.90;;;;;;2603870;54;20030;31
2023/01/13 02:24:52;;;;;;;2.97;1.23;;;9.00;99.90;;;;;;2603851;54;20034;31
2023/01/13 02:27:26;;;;;;;2.53;1.03;;;9.00;99.90;;;;;;2603746;54;20824;31
2023/01/13 02:33:05;;;;;;;2.28;1.38;;;9.00;99.90;;;;;;2603781;54;20940;31
2023/01/13 02:35:42;;;;;;;1.50;1.07;;;9.00;99.90;;;;;;2603898;54;20066;31
2023/01/13 02:38:17;;;;;;;2.60;0.93;;;9.00;99.90;;;;;;2621590;46;20272;31
2023/01/13 02:40:57;;;;;;;2.15;1.00;;;9.10;99.90;;;;;;2603447;54;20033;31
2023/01/13 02:46:24;;;;;;;5.25;1.52;;;9.10;99.90;;;;;;2622244;46;20800;31
2023/01/13 02:48:59;;;;;;;3.90;1.35;;;9.10;99.90;;;;;;2603346;54;20865;31
2023/01/13 02:51:33;;;;;;;2.67;1.17;;;9.10;99.90;;;;;;2603555;54;20953;31
2023/01/13 02:54:09;;;;;;;3.35;1.27;;;9.10;99.90;;;;;;2603308;54;20031;31
2023/01/13 02:56:46;;;;;;;3.20;1.40;;;9.10;99.90;;;;;;2603584;54;20034;31
2023/01/13 02:59:20;;;;;;;2.00;0.98;;;9.20;99.90;;;;;;2603752;54;20026;31
2023/01/13 03:01:59;;;;;;;3.17;1.30;;;9.10;99.90;;;;;;2603523;54;20817;31
2023/01/13 03:04:50;;;;;;;3.05;1.08;;;9.10;99.90;;;;;;2622263;46;20922;31
2023/01/13 03:07:44;;;;;;;2.60;1.15;;;9.10;99.90;;;;;;2603689;54;20049;31
2023/01/13 03:10:24;;;;;;;3.90;1.40;;;9.20;99.90;;;;;;2702154;39;20507;31
2023/01/13 03:13:04;;;;;;;5.70;1.38;;;9.10;99.90;;;;;;2701889;39;20472;31
2023/01/13 03:15:44;;;;;;;3.38;1.58;;;9.10;99.90;;;;;;2603523;54;20057;31
2023/01/13 03:18:30;;;;;;;3.95;1.50;;;9.10;99.90;;;;;;2603647;54;20023;31
2023/01/13 03:21:07;;;;;;;2.50;1.10;;;9.10;99.90;;;;;;2603524;54;20158;31
2023/01/13 03:23:45;;;;;;;2.40;1.20;;;9.10;99.90;;;;;;2603630;54;20049;31
2023/01/13 03:26:25;;;;;;;3.27;1.50;;;9.00;99.90;;;;;;2603448;54;20912;31
2023/01/13 03:29:04;;;;;;;2.00;1.17;;;9.00;99.90;;;;;;2603319;54;20893;31
2023/01/13 03:31:39;;;;;;;4.20;1.00;;;9.00;99.90;;;;;;2603557;54;20052;31
2023/01/13 03:34:18;;;;;;;3.88;1.60;;;8.90;99.90;;;;;;2603721;54;20802;31
2023/01/13 03:36:55;;;;;;;3.08;1.00;;;8.90;99.90;;;;;;2603682;54;20060;31
2023/01/13 03:39:29;;;;;;;;;;;8.90;99.90;;;;;;2603531;54;20913;31
2023/01/13 03:42:04;;;;;;;3.53;1.38;;;8.90;99.90;;;;;;2603661;54;19958;31
2023/01/13 03:44:37;;;;;;;3.33;1.17;;;8.80;99.90;;;;;;2603553;54;20897;31
2023/01/13 03:47:15;;;;;;;1.70;0.70;;;8.80;99.90;;;;;;2603296;54;20061;31
2023/01/13 03:49:55;;;;;;;2.55;1.10;;;8.80;99.90;;;;;;2603503;54;20033;31
2023/01/13 03:52:31;;;;;;;3.75;1.70;;;8.90;99.90;;;;;;2603467;54;20036;31
2023/01/13 03:55:06;;;;;;;3.15;1.10;;;8.90;99.90;;;;;;2603444;54;20048;31
2023/01/13 03:57:45;;;;;;;3.20;1.10;;;8.90;99.90;;;;;;2603500;54;20529;31
2023/01/13 04:00:24;;;;;;;3.20;0.85;;;8.90;99.90;;;;;;2621710;46;20026;31
2023/01/13 04:03:01;;;;;;;5.55;1.00;;;8.90;99.90;;;;;;2603181;54;20046;31
2023/01/13 04:05:41;;;;;;;2.97;0.97;;;8.90;99.90;;;;;;2603334;54;20028;31
2023/01/13 04:08:18;;;;;;;3.67;1.02;;;8.90;99.90;;;;;;2603385;54;20024;31
2023/01/13 04:10:55;;;;;;;3.50;1.20;;;8.90;99.90;;;;;;2603476;54;20050;31
2023/01/13 04:13:32;;;;;;;2.88;0.90;;;8.90;99.90;;;;;;2603293;54;20955;31
2023/01/13 04:16:07;;;;;;;2.97;1.00;;;8.90;99.90;;;;;;2603386;54;20037;31
2023/01/13 04:18:42;;;;;;;2.40;1.00;;;8.90;99.90;;;;;;2603362;54;20030;31
2023/01/13 04:21:19;;;;;;;2.85;0.98;;;8.90;99.90;;;;;;2603045;54;20908;31
2023/01/13 04:23:53;;;;;;;2.70;0.90;;;8.90;99.90;;;;;;2603609;54;20844;31
2023/01/13 04:26:28;;;;;;;2.45;1.00;;;8.90;99.90;;;;;;2603218;54;20864;31
2023/01/13 04:29:03;;;;;;;3.00;0.98;;;8.90;99.90;;;;;;2603514;54;20881;31
2023/01/13 04:31:37;;;;;;;3.78;1.15;;;8.90;99.90;;;;;;2603060;54;20085;31
2023/01/13 04:34:13;;;;;;;2.70;1.00;;;8.90;99.90;;;;;;2603257;54;20878;31
2023/01/13 04:36:50;;;;;;;2.05;1.15;;;8.90;99.90;;;;;;2603121;54;20837;31
2023/01/13 04:39:25;;;;;;;3.67;1.00;;;8.90;99.90;;;;;;2603275;54;20972;31
2023/01/13 04:42:01;;;;;;;2.00;0.90;;;8.90;99.90;;;;;;2603108;54;20030;31
2023/01/13 04:44:36;;;;;;;4.70;0.93;;;9.00;99.90;;;;;;2603463;54;20897;31
2023/01/13 04:47:12;;;;;;;2.43;0.87;;;8.90;99.90;;;;;;2701600;39;20700;31
2023/01/13 04:49:46;;;;;;;2.45;0.90;;;9.00;99.90;;;;;;2603072;54;20913;31
2023/01/13 04:52:20;;;;;;;3.70;1.20;;;8.90;99.90;;;;;;2603056;54;20919;31
2023/01/13 04:54:59;;;;;;;3.70;1.15;;;9.00;99.90;;;;;;2603206;54;20893;31
2023/01/13 04:57:36;;;;;;;4.00;1.00;;;9.00;99.90;;;;;;2603281;54;20915;31
2023/01/13 05:00:12;;;;;;;4.35;1.45;;;8.90;99.90;;;;;;2603213;54;20077;31
2023/01/13 05:02:47;;;;;;;2.65;1.10;;;8.90;99.90;;;;;;2603018;54;20559;31
2023/01/13 05:05:22;;;;;;;3.17;0.93;;;9.00;99.90;;;;;;2603027;54;20085;31
2023/01/13 05:07:56;;;;;;;4.53;1.17;;;8.90;99.90;;;;;;2602887;54;20030;31
2023/01/13 05:10:33;;;;;;;2.80;1.00;;;8.90;99.90;;;;;;2603117;54;20918;31
2023/01/13 05:18:51;;;;;;;5.80;1.10;;;8.90;99.90;;;;;;2603391;54;20920;31
2023/01/13 05:27:02;;;;;;;2.80;0.90;;;9.00;99.90;;;;;;2602997;54;20636;31
2023/01/13 05:29:37;;;;;;;1.77;1.00;;;9.00;99.90;;;;;;2602913;54;20093;31
2023/01/13 05:32:12;;;;;;;3.23;1.03;;;9.00;99.90;;;;;;2602947;54;20038;31
2023/01/13 05:34:48;;;;;;;1.65;0.70;;;9.00;99.90;;;;;;2603099;54;20034;31
2023/01/13 05:37:22;;;;;;;3.65;0.80;;;9.00;99.90;;;;;;2603164;54;20030;31
2023/01/13 05:45:35;;;;;;;4.43;0.98;;;9.00;99.90;;;;;;2603858;54;20242;31
2023/01/13 05:48:09;;;;;;;2.10;1.00;;;9.00;99.90;;;;;;2603745;54;20030;31
2023/01/13 05:50:44;;;;;;;3.25;1.10;;;9.00;99.90;;;;;;2603658;54;20052;31
2023/01/13 05:53:20;;;;;;;1.60;0.70;;;9.00;99.90;;;;;;2603711;54;20045;31
2023/01/13 05:55:54;;;;;;;2.03;1.08;;;9.00;99.90;;;;;;2622242;46;20140;31
2023/01/13 05:58:34;;;;;;;1.53;0.93;;;9.00;99.90;;;;;;2603887;54;20879;31
2023/01/13 06:01:13;;;;;;;2.58;0.70;;;9.00;99.90;;;;;;2603587;54;20905;31
2023/01/13 06:03:49;;;;;;;3.00;0.95;;;9.00;99.90;;;;;;2603883;54;20129;31
2023/01/13 06:06:25;;;;;;;2.57;0.87;;;9.00;99.90;;;;;;2603622;54;20128;31
2023/01/13 06:09:01;;;;;;;3.05;0.70;;;9.00;99.90;;;;;;2622154;46;20094;31
2023/01/13 06:11:36;;;;;;;2.10;0.75;;;9.00;99.90;;;;;;2603723;54;20797;31
2023/01/13 06:14:14;;;;;;;3.25;1.08;;;9.00;99.90;;;;;;2603860;54;20030;31
2023/01/13 06:16:50;;;;;;;3.00;0.90;;;9.00;99.90;;;;;;2603679;54;20818;31
2023/01/13 06:19:25;;;;;;;2.67;1.13;;;9.00;99.90;;;;;;2603772;54;20053;31
2023/01/13 06:22:01;;;;;;;2.33;1.00;;;9.00;99.90;;;;;;2603664;54;20033;31
2023/01/13 06:24:36;;;;;;;1.70;0.80;;;9.00;99.90;;;;;;2603707;54;21033;31
2023/01/13 06:27:11;;;;;;;3.40;0.90;;;9.00;99.90;;;;;;2603664;54;20856;31
2023/01/13 06:29:50;;;;;;;2.15;0.63;;;9.00;99.90;;;;;;2603580;54;20054;31
2023/01/13 06:32:26;;;;;;;3.35;1.05;;;9.00;99.90;;;;;;2603643;54;20570;31
2023/01/13 06:35:01;;;;;;;3.67;1.23;;;9.00;99.90;;;;;;2603587;54;20076;31
2023/01/13 06:37:39;;;;;;;2.00;0.90;;;9.00;99.90;;;;;;2603625;54;20029;31
2023/01/13 06:40:16;;;;;;;2.35;1.25;;;9.00;99.90;;;;;;2603784;54;20860;31
2023/01/13 06:45:45;;;;;;;1.77;0.80;;;9.00;99.90;;;;;;2603628;54;20089;31
2023/01/13 06:48:20;;;;;;;1.70;0.80;;;9.00;99.90;;;;;;2603654;54;20000;31
2023/01/13 06:50:56;;;;;;;2.70;0.70;;;9.10;99.90;;;;;;2603460;54;20026;31
2023/01/13 06:53:31;;;;;;;6.78;0.90;;;9.10;99.90;;;;;;2603627;54;20137;31
2023/01/13 06:56:06;;;;;;;3.60;0.85;;;9.10;99.90;;;;;;2603490;54;20054;31
2023/01/13 06:58:42;;;;;;;1.45;0.50;;;9.10;99.90;;;;;;2622378;46;20034;31
2023/01/13 07:01:19;;;;;;;2.47;0.70;;;9.10;99.90;;;;;;2603723;54;20137;31
2023/01/13 07:03:54;;;;;;;1.20;0.60;;;9.10;99.90;;;;;;2603651;54;20030;31
2023/01/13 07:06:31;;;;;;;4.07;0.80;;;9.10;99.90;;;;;;2602618;54;20037;31
2023/01/13 07:09:06;;;;;;;2.40;0.45;;;9.10;99.90;;;;;;2603557;54;19946;31
2023/01/13 07:11:42;;;;;;;2.25;0.60;;;9.10;99.90;;;;;;2603646;54;20026;31
2023/01/13 07:17:08;;;;;;;4.43;0.80;;;9.10;99.90;;;;;;2603799;54;20877;31
2023/01/13 07:22:31;;;;;;;3.87;0.97;;;9.10;99.90;;;;;;2603420;54;20806;31
2023/01/13 07:25:08;;;;;;;2.63;0.77;;;9.10;99.90;;;;;;2603257;54;20874;31
2023/01/13 07:27:43;;;;;;;6.22;0.85;;;9.10;99.90;;;;;;2603369;54;20038;31
2023/01/13 07:32:55;;;;;;;4.57;0.90;;;9.20;99.90;;;;;;2602911;54;20090;31
2023/01/13 07:35:30;;;;;;;1.52;0.85;;;9.10;99.90;;;;;;2603484;54;20030;31
2023/01/13 07:38:05;;;;;;;2.38;0.93;;;9.20;99.90;;;;;;2603371;54;20034;31
2023/01/13 07:40:42;;;;;;;2.80;0.95;;;9.20;99.90;;;;;;2603307;54;20104;31
2023/01/13 07:46:07;;;;;;;2.15;0.98;;;9.20;99.90;;;;;;2702067;39;20461;31
2023/01/13 07:48:45;;;;;;;1.13;0.60;;;9.20;99.90;;;;;;2603478;54;20816;31
2023/01/13 07:51:21;;;;;;;3.42;0.73;;;9.20;99.90;;;;;;2603477;54;20038;31
2023/01/13 07:53:57;;;;;;;2.88;0.60;;;9.20;99.90;;;;;;2603485;54;20052;31
2023/01/13 07:56:35;;;;;;;2.78;1.00;;;9.20;99.90;;;;;;2603482;54;20029;31
2023/01/13 07:59:11;;;;;;;3.33;1.40;;;9.20;99.90;;;;;;2603289;54;20023;31
2023/01/13 08:01:48;;;;;;;1.98;0.82;;;9.20;99.90;;;;;;2603126;54;20928;31
2023/01/13 08:04:28;;;;;;;4.57;1.25;;;9.30;99.90;;;;;;2603084;54;20098;31
2023/01/13 08:07:03;;;;;;;1.80;0.80;;;9.30;99.90;;;;;;2603431;54;20907;31
2023/01/13 08:09:43;;;;;;;3.20;0.83;;;9.30;99.90;;;;;;2603365;54;20824;31
2023/01/13 08:15:08;;;;;;;2.20;0.80;;;9.30;99.90;;;;;;2603504;54;20258;31
2023/01/13 08:17:44;;;;;;;3.17;1.20;;;9.30;99.90;;;;;;2603509;54;20808;31
2023/01/13 08:20:23;;;;;;;;;;;9.30;99.90;;;;;;2603659;54;20030;31
2023/01/13 08:22:59;;;;;;;2.20;0.90;;;9.30;99.90;;;;;;2603434;54;20671;31
2023/01/13 08:25:35;;;;;;;;;;;9.40;99.90;;;;;;2603574;54;20956;31
2023/01/13 08:28:10;;;;;;;3.87;1.10;;;9.40;99.90;;;;;;2603412;54;20738;31
2023/01/13 08:30:46;;;;;;;12.55;1.95;;;9.40;99.90;;;;;;2603095;54;20091;31
2023/01/13 08:33:22;;;;;;;1.90;0.82;;;9.40;99.90;;;;;;2603135;54;20906;31
2023/01/13 08:36:05;;;;;;;3.33;0.60;;;9.40;99.90;;;;;;2603246;54;19961;31
2023/01/13 08:38:40;;;;;;;1.70;0.80;;;9.40;99.90;;;;;;2603345;54;20026;31
2023/01/13 08:41:53;;;;;;;4.50;0.95;;;9.50;99.90;;;;;;2603469;54;20966;31
2023/01/13 08:44:12;;;;;;;6.35;1.08;;;9.50;99.90;;;;;;2603096;54;20042;31
2023/01/13 08:46:48;;;;;;;2.92;0.80;;;9.50;99.90;;;;;;2603236;54;20863;31
2023/01/13 08:49:26;;;;;;;3.45;0.90;;;9.50;99.90;;;;;;2603222;54;20799;31
2023/01/13 08:52:05;;;;;;;2.80;0.80;;;9.60;99.90;;;;;;2603232;54;20027;31
2023/01/13 08:54:42;;;;;;;2.10;0.90;;;9.60;99.90;;;;;;2603304;54;20023;31
2023/01/13 08:57:18;;;;;;;2.87;1.10;;;9.60;99.90;;;;;;2603071;54;20105;31
2023/01/13 08:59:55;;;;;;;3.25;0.80;;;9.60;99.90;;;;;;2602997;54;20085;31
2023/01/13 09:02:30;;;;;;;2.93;0.60;;;9.60;99.90;;;;;;2603161;54;20038;31
2023/01/13 09:05:08;;;;;;;5.05;0.70;;;9.60;99.90;;;;;;2603294;54;20916;31
2023/01/13 09:07:50;;;;;;;3.55;0.80;;;9.60;99.90;;;;;;2603102;54;20849;31
2023/01/13 09:10:27;;;;;;;1.55;0.60;;;9.60;99.90;;;;;;2603001;54;20026;31
2023/01/13 09:13:13;;;;;;;1.83;0.60;;;9.60;99.90;;;;;;2603213;54;20132;31
2023/01/13 09:15:51;;;;;;;4.75;1.25;;;9.60;99.90;;;;;;2603119;54;20852;31
2023/01/13 09:18:39;;;;;;;2.97;0.90;;;9.60;99.90;;;;;;2603020;54;20109;31
2023/01/13 09:21:18;;;;;;;2.92;1.02;;;9.60;99.90;;;;;;2603016;54;20034;31
2023/01/13 09:24:02;;;;;;;2.50;1.27;;;9.60;99.90;;;;;;2602918;54;20026;31
2023/01/13 09:26:46;;;;;;;3.63;1.38;;;9.60;99.90;;;;;;2621434;46;20026;31
2023/01/13 09:29:24;;;;;;;4.75;1.35;;;9.60;99.90;;;;;;2603016;54;20821;31
2023/01/13 09:32:01;;;;;;;2.73;1.00;;;9.60;99.90;;;;;;2602760;54;20022;31
2023/01/13 09:37:26;;;;;;;3.70;1.45;;;9.60;99.90;;;;;;2603211;54;20054;31
2023/01/13 09:40:04;;;;;;;2.63;1.17;;;9.60;99.90;;;;;;2603010;54;20833;31
2023/01/13 09:45:34;;;;;;;3.15;1.60;;;9.60;99.90;;;;;;2603152;54;20843;31
2023/01/13 09:48:12;;;;;;;4.85;1.20;;;9.60;99.90;;;;;;2603183;54;20158;31
2023/01/13 09:50:57;;;;;;;2.60;1.25;;;9.60;99.90;;;;;;2602102;54;20928;31
2023/01/13 09:53:35;;;;;;;2.78;1.05;;;9.60;99.90;;;;;;2603085;54;20050;31
2023/01/13 09:58:43;;;;;;;3.65;1.50;;;9.60;99.90;;;;;;2602959;54;20038;31
2023/01/13 10:01:21;;;;;;;3.28;1.60;;;9.60;99.90;;;;;;2603006;54;20081;31
2023/01/13 10:03:57;;;;;;;2.45;1.13;;;9.60;99.90;;;;;;2603210;54;20034;31
2023/01/13 10:06:32;;;;;;;;;;;9.60;99.90;;;;;;2603159;54;20026;31
2023/01/13 10:09:11;;;;;;;2.60;1.20;;;9.70;99.90;;;;;;2603231;54;20013;31
2023/01/13 10:14:39;;;;;;;3.00;1.10;;;9.70;99.90;;;;;;2609022;39;22374;31
2023/01/13 10:17:21;;;;;;;2.40;1.20;;;9.70;99.90;;;;;;2621074;47;20847;31
2023/01/13 10:19:59;;;;;;;3.15;1.05;;;9.70;99.90;;;;;;2602892;54;20026;31
2023/01/13 10:22:50;;;;;;;2.90;1.23;;;9.80;99.90;;;;;;2602740;54;20064;31
2023/01/13 10:25:43;;;;;;;3.30;1.10;;;9.80;99.90;;;;;;2602948;54;20031;31
2023/01/13 10:28:22;;;;;;;2.13;0.90;;;9.80;99.90;;;;;;2602668;54;20133;31
2023/01/13 10:31:00;;;;;;;2.95;1.15;;;9.90;99.90;;;;;;2603591;54;20093;31
2023/01/13 10:33:37;;;;;;;2.45;1.00;;;9.90;99.90;;;;;;2603604;54;20909;31
2023/01/13 10:36:16;;;;;;;3.92;1.30;;;10.00;99.90;;;;;;2603649;54;20030;31
2023/01/13 10:38:52;;;;;;;1.60;0.77;;;10.00;99.90;;;;;;2603830;54;20022;31
2023/01/13 10:41:29;;;;;;;2.80;1.50;;;10.00;99.90;;;;;;2603448;54;20038;31
2023/01/13 10:44:06;;;;;;;3.88;1.75;;;10.00;99.90;;;;;;2602985;54;20214;31
2023/01/13 10:46:56;;;;;;;2.75;1.08;;;10.10;99.90;;;;;;2603558;54;20022;31
2023/01/13 10:49:35;;;;;;;2.30;1.05;;;10.20;99.90;;;;;;2603802;54;20033;31
2023/01/13 10:52:30;;;;;;;3.95;1.10;;;10.20;99.90;;;;;;2603648;54;20089;31
2023/01/13 10:55:07;;;;;;;5.00;1.02;;;10.30;99.90;;;;;;2603625;54;20851;31
2023/01/13 10:57:42;;;;;;;3.88;1.20;;;10.40;99.90;;;;;;2603570;54;20933;31
2023/01/13 11:00:30;;;;;;;2.80;1.10;;;10.50;99.90;;;;;;2603585;54;20026;31
2023/01/13 11:03:26;;;;;;;2.88;1.00;;;10.70;99.90;;;;;;2603693;54;20093;31
2023/01/13 11:06:02;;;;;;;2.10;0.95;;;10.80;99.90;;;;;;2603588;54;20927;31
2023/01/13 11:08:44;;;;;;;3.97;1.20;;;10.80;99.90;;;;;;2603691;54;20792;31
2023/01/13 11:11:43;;;;;;;1.67;0.75;;;10.90;99.90;;;;;;2603531;54;20028;31
2023/01/13 11:17:30;;;;;;;2.03;0.88;;;10.90;99.90;;;;;;2621953;46;20109;31
2023/01/13 11:20:17;;;;;;;1.88;1.00;;;10.90;99.90;;;;;;2603694;54;20057;31
2023/01/13 11:22:56;;;;;;;3.05;1.25;;;10.90;99.90;;;;;;2603560;54;20085;31
2023/01/13 11:25:40;;;;;;;2.47;0.93;;;10.90;99.90;;;;;;2603496;54;20026;31
2023/01/13 11:28:22;;;;;;;1.60;0.90;;;10.90;99.90;;;;;;2603497;54;20944;31
2023/01/13 11:31:03;;;;;;;2.60;1.25;;;10.90;99.90;;;;;;2603266;54;20880;31
2023/01/13 11:33:41;;;;;;;3.97;1.20;;;10.90;99.90;;;;;;2603489;54;20053;31
2023/01/13 11:36:22;;;;;;;2.70;1.00;;;10.90;99.90;;;;;;2603570;54;20901;31
2023/01/13 11:38:57;;;;;;;3.17;0.93;;;10.90;99.90;;;;;;2603476;54;20037;31
2023/01/13 11:41:36;;;;;;;2.38;1.00;;;11.00;99.90;;;;;;2603431;54;20036;31
2023/01/13 11:44:16;;;;;;;3.15;0.80;;;11.00;99.90;;;;;;2603636;54;20022;31
2023/01/13 11:46:52;;;;;;;2.78;0.90;;;11.00;99.90;;;;;;2603469;54;19942;31
2023/01/13 11:49:29;;;;;;;6.65;0.88;;;11.00;99.90;;;;;;2603116;54;20410;31
2023/01/13 11:52:13;;;;;;;2.15;1.05;;;10.90;99.90;;;;;;2603239;39;21251;31
2023/01/13 11:54:58;;;;;;;3.38;0.95;;;10.90;99.90;;;;;;2602680;54;20018;31
2023/01/13 11:58:10;;;;;;;2.85;1.20;;;11.00;99.90;;;;;;2603633;54;20038;31
2023/01/13 12:01:09;;;;;;;2.10;0.80;;;11.00;99.90;;;;;;2603487;54;20026;31
2023/01/13 12:03:46;;;;;;;5.22;0.90;;;11.00;99.90;;;;;;2603168;54;20896;31
2023/01/13 12:06:24;;;;;;;2.60;0.90;;;11.00;99.90;;;;;;2603270;54;20128;31
2023/01/13 12:09:32;;;;;;;2.75;1.17;;;11.00;99.90;;;;;;2603271;54;20053;31
2023/01/13 12:12:23;;;;;;;3.65;1.05;;;11.10;99.90;;;;;;2603535;54;20848;31
2023/01/13 12:15:15;;;;;;;4.90;1.00;;;11.10;99.90;;;;;;2603448;54;20826;31
2023/01/13 12:17:57;;;;;;;4.28;1.20;;;11.10;99.90;;;;;;2603341;54;20073;31
2023/01/13 12:20:37;;;;;;;5.03;1.13;;;11.10;99.90;;;;;;2603282;54;20934;31
2023/01/13 12:23:15;;;;;;;3.53;1.38;;;11.10;99.90;;;;;;2603297;54;20065;31
2023/01/13 12:25:54;;;;;;;2.05;1.00;;;11.00;99.90;;;;;;2603087;54;20081;31
2023/01/13 12:28:30;;;;;;;3.60;1.00;;;11.10;99.90;;;;;;2603238;54;20914;31
2023/01/13 12:31:06;;;;;;;2.93;1.10;;;11.10;99.90;;;;;;2603363;54;20029;31
2023/01/13 12:33:49;;;;;;;3.70;1.10;;;11.00;99.90;;;;;;2603303;54;19956;31
2023/01/13 12:36:27;;;;;;;1.70;0.90;;;11.10;99.90;;;;;;2603395;54;20022;31
2023/01/13 12:39:06;;;;;;;4.90;1.50;;;11.10;99.90;;;;;;2603483;54;20037;31
2023/01/13 12:44:39;;;;;;;3.22;1.00;;;11.10;99.90;;;;;;2603229;54;20046;31
2023/01/13 12:47:31;;;;;;;5.43;1.10;;;11.10;99.90;;;;;;2603314;54;20875;31
2023/01/13 12:50:39;;;;;;;4.70;1.20;;;11.10;99.90;;;;;;2603246;54;20911;31
2023/01/13 12:53:33;;;;;;;5.25;1.20;;;11.20;99.90;;;;;;2603095;54;20929;31
2023/01/13 12:56:46;;;;;;;2.83;1.02;;;11.20;99.90;;;;;;2603245;54;20844;31
2023/01/13 12:59:52;;;;;;;2.63;0.82;;;11.20;99.90;;;;;;2603559;54;20764;31
2023/01/13 13:02:37;;;;;;;4.15;1.25;;;11.20;99.90;;;;;;2603101;54;20092;31
2023/01/13 13:05:41;;;;;;;5.97;1.23;;;11.10;99.90;;;;;;2603261;54;20826;31
2023/01/13 13:08:27;;;;;;;3.90;1.30;;;11.20;99.90;;;;;;2603317;54;20877;31
2023/01/13 13:14:09;;;;;;;2.50;1.10;;;11.20;99.90;;;;;;2604890;46;20030;31
2023/01/13 13:16:55;;;;;;;3.30;1.10;;;11.20;99.90;;;;;;2603473;54;20880;31
2023/01/13 13:19:45;;;;;;;;;;;11.20;99.90;;;;;;2603357;54;20847;31
2023/01/13 13:22:20;;;;;;;2.15;1.25;;;11.20;99.90;;;;;;2603316;54;19941;31
2023/01/13 13:25:22;;;;;;;3.05;1.10;;;11.20;99.90;;;;;;2601509;54;20093;31
2023/01/13 13:28:20;;;;;;;1.73;0.88;;;11.20;99.90;;;;;;2599106;54;20942;31
2023/01/13 13:31:10;;;;;;;4.40;2.05;;;11.30;99.90;;;;;;2602351;54;20494;31
2023/01/13 13:33:55;;;;;;;3.40;1.05;;;11.50;99.90;;;;;;2603103;54;19972;31
2023/01/13 13:36:48;;;;;;;3.83;1.02;;;11.40;99.90;;;;;;2602991;54;20026;31
2023/01/13 13:47:51;;;;;;;3.90;1.40;;;11.30;99.90;;;;;;2603202;54;20857;31
2023/01/13 13:50:33;;;;;;;4.03;1.38;;;11.20;99.90;;;;;;2602748;54;20035;31
2023/01/13 13:53:09;;;;;;;3.40;1.52;;;11.20;99.90;;;;;;2603091;54;20932;31
2023/01/13 13:55:43;;;;;;;5.50;2.28;;;11.20;99.90;;;;;;2602966;54;20085;31
2023/01/13 13:58:19;;;;;;;3.90;1.43;;;11.10;99.90;;;;;;2603097;54;20930;31
2023/01/13 14:00:58;;;;;;;2.08;1.15;;;11.10;99.90;;;;;;2602901;54;20027;31
2023/01/13 14:03:32;;;;;;;16.05;3.25;;;11.10;99.90;;;;;;2600682;54;20037;31
2023/01/13 14:06:18;;;;;;;8.18;2.53;;;11.30;99.90;;;;;;2601482;54;20860;31
2023/01/13 14:08:51;;;;;;;3.95;2.60;;;11.60;99.90;;;;;;2603010;54;20921;31
2023/01/13 14:11:28;;;;;;;7.45;2.58;;;11.60;99.90;;;;;;2602641;54;20042;31
2023/01/13 14:14:05;;;;;;;4.63;2.33;;;11.60;99.90;;;;;;2621365;46;20934;31
2023/01/13 14:16:42;;;;;;;;;;;11.50;99.90;;;;;;2622142;46;20022;31
2023/01/13 14:19:26;;;;;;;6.93;2.00;;;11.40;99.90;;;;;;2603193;54;19950;31
2023/01/13 14:22:06;;;;;;;4.32;1.52;;;11.20;99.90;;;;;;2603069;54;20030;31
2023/01/13 14:24:38;;;;;;;3.45;1.50;;;11.00;99.90;;;;;;2603831;54;20037;31
2023/01/13 14:27:15;;;;;;;2.10;0.88;;;10.80;99.90;;;;;;2603621;54;20947;31
2023/01/13 14:29:52;;;;;;;10.38;2.22;;;10.60;99.90;;;;;;2606417;54;20022;31
2023/01/13 14:32:28;;;;;;;2.80;1.40;;;10.50;99.90;;;;;;2603812;54;20033;31
2023/01/13 14:35:04;;;;;;;5.00;1.90;;;10.30;99.90;;;;;;2603708;54;20125;31
2023/01/13 14:37:44;;;;;;;5.28;2.20;;;10.20;99.90;;;;;;2603921;54;20190;31
2023/01/13 14:40:44;;;;;;;3.93;2.30;;;10.10;99.90;;;;;;2603542;54;20898;31
2023/01/13 14:43:20;;;;;;;4.15;1.80;;;10.10;99.90;;;;;;2603683;54;20089;31
2023/01/13 14:46:01;;;;;;;4.07;2.33;;;10.00;99.90;;;;;;2603859;54;20881;31
2023/01/13 14:48:39;;;;;;;2.92;2.08;;;9.90;99.90;;;;;;2603820;54;20843;31
2023/01/13 14:51:15;;;;;;;5.40;3.00;;;9.90;99.90;;;;;;2603535;54;20920;31
2023/01/13 14:53:53;;;;;;;6.70;3.85;;;9.90;99.90;;;;;;2603647;54;20810;31
2023/01/13 14:56:42;;;;;;;6.18;3.28;;;9.90;99.90;;;;;;2603471;54;20027;31
2023/01/13 14:59:55;;;;;;;5.45;2.80;;;9.80;99.90;;;;;;2603489;54;20894;31
2023/01/13 15:02:40;;;;;;;4.30;2.38;;;9.80;99.90;;;;;;2603512;54;20866;31
2023/01/13 15:05:35;;;;;;;2.60;0.90;;;9.70;99.90;;;;;;2603715;54;20819;31
2023/01/13 15:08:27;;;;;;;1.50;0.60;;;9.70;99.90;;;;;;2603819;54;20271;31
2023/01/13 15:11:04;;;;;;;2.40;0.70;;;9.70;99.90;;;;;;2603422;54;21128;31
2023/01/13 15:13:42;;;;;;;1.90;0.80;;;9.60;99.90;;;;;;2603611;54;20033;31
2023/01/13 15:16:27;;;;;;;1.88;0.90;;;9.60;99.90;;;;;;2603417;54;20064;31
2023/01/13 15:19:02;;;;;;;3.60;0.90;;;9.60;99.90;;;;;;2603561;54;20057;31
2023/01/13 15:21:38;;;;;;;3.00;1.10;;;9.60;99.90;;;;;;2603433;54;20085;31